Time;durP1;ratioP1;P1;durP2;ratioP2;P2;SDS_P1;SDS_P2;PMS_P1;PMS_P2;Temp;Humidity;BMP_temperature;BMP_pressure;BME280_temperature;BME280_humidity;BME280_pressure;Samples;Min_cycle;Max_cycle;Signal;HPM_P1;HPM_P2
2021/07/01 00:01:14;;;;;;;111.23;106.17;;;;;;;;;;4991586;28;20470;-67
2021/07/01 00:03:41;;;;;;;117.77;112.40;;;;;;;;;;4991431;28;20845;-68
2021/07/01 00:06:10;;;;;;;112.23;107.13;;;;;;;;;;4992212;28;20450;-66
2021/07/01 00:08:37;;;;;;;114.10;108.90;;;;;;;;;;4992200;28;20450;-69
2021/07/01 00:11:05;;;;;;;113.60;108.20;;;;;;;;;;4991380;28;20482;-66
2021/07/01 00:13:32;;;;;;;108.47;103.43;;;;;;;;;;4992158;28;20453;-67
2021/07/01 00:15:59;;;;;;;110.87;105.77;;;;;;;;;;4991853;28;20461;-66
2021/07/01 00:18:26;;;;;;;110.00;105.00;;;;;;;;;;4991800;28;20796;-66
2021/07/01 00:20:53;;;;;;;111.23;105.33;;;;;;;;;;4991088;28;20478;-67
2021/07/01 00:23:21;;;;;;;116.80;111.40;;;;;;;;;;4992268;28;20490;-66
2021/07/01 00:25:49;;;;;;;115.43;109.87;;;;;;;;;;4991933;28;20450;-66
2021/07/01 00:28:16;;;;;;;115.33;110.00;;;;;;;;;;4991842;28;20450;-69
2021/07/01 00:30:43;;;;;;;111.60;106.40;;;;;;;;;;4993247;28;20471;-66
2021/07/01 00:33:10;;;;;;;114.27;108.97;;;;;;;;;;4995718;28;20941;-67
2021/07/01 00:35:38;;;;;;;115.30;110.00;;;;;;;;;;4995728;28;20895;-66
2021/07/01 00:38:05;;;;;;;115.17;110.07;;;;;;;;;;4995951;28;20446;-66
2021/07/01 00:40:33;;;;;;;114.57;109.47;;;;;;;;;;4994520;28;20813;-65
2021/07/01 00:43:00;;;;;;;111.00;106.00;;;;;;;;;;4995733;28;20482;-66
2021/07/01 00:45:27;;;;;;;107.60;102.80;;;;;;;;;;4995488;28;20473;-66
2021/07/01 00:47:55;;;;;;;108.53;103.53;;;;;;;;;;4995171;28;20549;-64
2021/07/01 00:50:23;;;;;;;107.40;102.60;;;;;;;;;;4994833;28;20479;-65
2021/07/01 00:52:50;;;;;;;107.13;102.33;;;;;;;;;;4994973;28;20903;-66
2021/07/01 00:55:17;;;;;;;105.67;100.97;;;;;;;;;;4995959;28;20453;-65
2021/07/01 00:57:46;;;;;;;104.90;100.10;;;;;;;;;;4993376;28;20976;-67
2021/07/01 01:00:30;;;;;;;110.23;105.23;;;;;;;;;;4994980;28;20454;-66
2021/07/01 01:02:57;;;;;;;107.23;102.43;;;;;;;;;;4995179;28;20478;-66
2021/07/01 01:05:25;;;;;;;101.00;96.50;;;;;;;;;;4995145;28;20834;-66
2021/07/01 01:07:52;;;;;;;97.63;93.33;;;;;;;;;;4994778;28;20458;-66
2021/07/01 01:10:19;;;;;;;99.10;94.70;;;;;;;;;;4994459;28;20829;-66
2021/07/01 01:12:47;;;;;;;98.27;93.90;;;;;;;;;;4994198;28;20819;-67
2021/07/01 01:15:14;;;;;;;104.90;99.97;;;;;;;;;;4995315;28;20451;-65
2021/07/01 01:17:43;;;;;;;104.70;100.10;;;;;;;;;;4995032;28;20476;-65
2021/07/01 01:20:12;;;;;;;98.87;94.47;;;;;;;;;;4995005;28;20451;-67
2021/07/01 01:22:40;;;;;;;93.73;89.53;;;;;;;;;;4994659;28;20486;-66
2021/07/01 01:25:08;;;;;;;93.23;89.13;;;;;;;;;;4994689;28;20450;-66
2021/07/01 01:27:35;;;;;;;95.67;91.33;;;;;;;;;;4994565;28;20809;-66
2021/07/01 01:30:02;;;;;;;90.90;86.70;;;;;;;;;;4994499;28;20460;-67
2021/07/01 01:32:30;;;;;;;95.07;90.87;;;;;;;;;;4994002;28;20450;-66
2021/07/01 01:34:57;;;;;;;95.60;91.37;;;;;;;;;;4994849;28;20451;-65
2021/07/01 01:37:24;;;;;;;92.00;87.57;;;;;;;;;;4994196;28;20451;-65
2021/07/01 01:39:52;;;;;;;88.57;84.27;;;;;;;;;;4994335;28;20454;-65
2021/07/01 01:42:19;;;;;;;80.60;76.90;;;;;;;;;;4993249;28;20490;-65
2021/07/01 01:44:47;;;;;;;88.53;84.43;;;;;;;;;;4994616;28;20797;-65
2021/07/01 01:47:17;;;;;;;91.10;86.90;;;;;;;;;;4994632;28;20450;-66
2021/07/01 01:49:45;;;;;;;92.50;88.10;;;;;;;;;;4994213;28;20459;-65
2021/07/01 01:52:12;;;;;;;91.93;87.40;;;;;;;;;;4993813;28;20463;-65
2021/07/01 01:54:40;;;;;;;87.67;83.57;;;;;;;;;;4994420;28;20454;-65
2021/07/01 01:57:08;;;;;;;87.33;83.27;;;;;;;;;;4994436;28;20455;-65
2021/07/01 01:59:35;;;;;;;86.93;82.80;;;;;;;;;;4994235;28;20456;-65
2021/07/01 02:02:03;;;;;;;82.90;79.00;;;;;;;;;;4993965;28;20573;-65
2021/07/01 02:04:30;;;;;;;80.73;77.00;;;;;;;;;;4993822;28;20865;-68
2021/07/01 02:06:57;;;;;;;78.00;74.17;;;;;;;;;;4994447;28;20447;-65
2021/07/01 02:09:24;;;;;;;73.70;70.20;;;;;;;;;;4993782;28;20458;-68
2021/07/01 02:11:51;;;;;;;78.90;75.17;;;;;;;;;;4993615;28;20836;-65
2021/07/01 02:14:20;;;;;;;76.87;73.13;;;;;;;;;;5015263;23;21065;-63
2021/07/01 02:16:47;;;;;;;74.77;71.17;;;;;;;;;;4990901;28;20462;-63
2021/07/01 02:19:14;;;;;;;72.97;69.43;;;;;;;;;;4993985;28;20449;-64
2021/07/01 02:21:41;;;;;;;77.23;73.53;;;;;;;;;;5004614;28;20449;-64
2021/07/01 02:24:08;;;;;;;76.87;73.17;;;;;;;;;;5000881;28;20945;-63
2021/07/01 02:26:36;;;;;;;76.20;72.50;;;;;;;;;;4992722;28;20453;-64
2021/07/01 02:29:03;;;;;;;76.37;72.77;;;;;;;;;;4992491;28;20453;-64
2021/07/01 02:31:32;;;;;;;72.60;68.93;;;;;;;;;;4993027;28;20533;-64
2021/07/01 02:33:59;;;;;;;70.33;66.83;;;;;;;;;;4993771;28;20438;-64
2021/07/01 02:36:26;;;;;;;75.23;71.63;;;;;;;;;;4993155;28;20825;-64
2021/07/01 02:38:53;;;;;;;68.80;65.07;;;;;;;;;;4993412;28;21021;-64
2021/07/01 02:41:20;;;;;;;73.67;70.17;;;;;;;;;;4992974;28;20454;-64
2021/07/01 02:43:47;;;;;;;70.97;67.57;;;;;;;;;;4993462;28;20489;-64
2021/07/01 02:46:14;;;;;;;67.23;63.93;;;;;;;;;;4993123;28;20480;-64
2021/07/01 02:48:43;;;;;;;64.30;61.10;;;;;;;;;;4993135;28;20455;-64
2021/07/01 02:51:10;;;;;;;67.83;64.33;;;;;;;;;;4978186;28;20453;-64
2021/07/01 02:53:37;;;;;;;72.80;69.20;;;;;;;;;;4992668;28;20529;-64
2021/07/01 02:56:05;;;;;;;72.70;68.90;;;;;;;;;;4992127;28;20478;-63
2021/07/01 02:58:32;;;;;;;76.40;72.70;;;;;;;;;;4992709;28;20537;-64
2021/07/01 03:00:59;;;;;;;76.37;72.77;;;;;;;;;;4992561;28;20538;-64
2021/07/01 03:03:26;;;;;;;76.30;72.50;;;;;;;;;;4993101;28;20481;-65
2021/07/01 03:05:55;;;;;;;73.20;69.60;;;;;;;;;;4992959;28;21006;-64
2021/07/01 03:08:22;;;;;;;72.00;68.40;;;;;;;;;;4992434;28;20463;-64
2021/07/01 03:10:49;;;;;;;72.80;69.40;;;;;;;;;;4992705;28;20461;-65
2021/07/01 03:13:16;;;;;;;72.80;69.20;;;;;;;;;;4993064;28;20458;-64
2021/07/01 03:15:43;;;;;;;76.27;72.07;;;;;;;;;;4992479;28;20517;-64
2021/07/01 03:18:11;;;;;;;75.43;71.40;;;;;;;;;;4992860;28;20455;-64
2021/07/01 03:20:38;;;;;;;75.50;71.27;;;;;;;;;;4992604;28;20458;-64
2021/07/01 03:23:06;;;;;;;75.47;71.50;;;;;;;;;;4987994;28;20488;-65
2021/07/01 03:25:33;;;;;;;69.27;65.53;;;;;;;;;;4989339;28;20478;-65
2021/07/01 03:28:00;;;;;;;70.83;67.03;;;;;;;;;;4992380;28;20451;-64
2021/07/01 03:30:28;;;;;;;73.90;69.70;;;;;;;;;;4991769;28;20541;-64
2021/07/01 03:32:55;;;;;;;67.93;64.53;;;;;;;;;;4992928;28;20442;-64
2021/07/01 03:35:22;;;;;;;63.97;60.50;;;;;;;;;;4991273;28;21115;-63
2021/07/01 03:37:49;;;;;;;66.33;62.63;;;;;;;;;;4991965;28;20457;-64
2021/07/01 03:40:18;;;;;;;63.17;59.77;;;;;;;;;;4992066;28;20472;-63
2021/07/01 03:42:45;;;;;;;64.10;60.60;;;;;;;;;;4992783;28;20486;-63
2021/07/01 03:45:12;;;;;;;63.67;60.27;;;;;;;;;;4991966;28;20470;-62
2021/07/01 03:47:39;;;;;;;64.20;60.90;;;;;;;;;;4991943;28;20455;-62
2021/07/01 03:50:08;;;;;;;61.97;58.67;;;;;;;;;;4991844;28;20972;-63
2021/07/01 03:52:35;;;;;;;62.33;58.93;;;;;;;;;;4992096;28;20459;-63
2021/07/01 03:55:02;;;;;;;60.50;57.30;;;;;;;;;;4992684;28;20478;-63
2021/07/01 03:57:30;;;;;;;60.07;56.97;;;;;;;;;;4991844;28;20533;-62
2021/07/01 03:59:57;;;;;;;56.37;53.03;;;;;;;;;;4992451;28;20549;-63
2021/07/01 04:02:24;;;;;;;57.33;54.33;;;;;;;;;;4991337;28;20546;-63
2021/07/01 04:04:52;;;;;;;56.73;53.67;;;;;;;;;;4979289;28;20463;-62
2021/07/01 04:07:19;;;;;;;56.43;53.33;;;;;;;;;;4979235;28;21000;-63
2021/07/01 04:09:46;;;;;;;57.23;53.40;;;;;;;;;;4992836;28;20457;-63
2021/07/01 04:12:13;;;;;;;56.33;53.23;;;;;;;;;;4992046;28;20957;-63
2021/07/01 04:14:41;;;;;;;53.00;50.10;;;;;;;;;;4992496;28;20478;-62
2021/07/01 04:17:09;;;;;;;56.20;53.00;;;;;;;;;;4990848;28;20454;-62
2021/07/01 04:19:36;;;;;;;56.87;53.77;;;;;;;;;;4992488;28;20443;-63
2021/07/01 04:22:03;;;;;;;59.07;55.97;;;;;;;;;;4991124;28;20455;-63
2021/07/01 04:24:30;;;;;;;53.87;50.97;;;;;;;;;;4991926;28;20845;-62
2021/07/01 04:26:57;;;;;;;51.33;48.63;;;;;;;;;;4991296;28;20452;-63
2021/07/01 04:29:24;;;;;;;51.43;48.80;;;;;;;;;;4991854;28;20483;-63
2021/07/01 04:31:53;;;;;;;49.30;46.50;;;;;;;;;;4991051;28;20465;-63
2021/07/01 04:34:20;;;;;;;49.50;46.60;;;;;;;;;;4987365;28;20834;-62
2021/07/01 04:36:47;;;;;;;49.40;46.60;;;;;;;;;;4972728;28;20440;-62
2021/07/01 04:39:14;;;;;;;46.23;43.63;;;;;;;;;;4988664;28;20451;-63
2021/07/01 04:41:41;;;;;;;47.70;44.83;;;;;;;;;;4978395;28;20466;-63
2021/07/01 04:44:09;;;;;;;48.10;45.40;;;;;;;;;;4999706;28;21113;-63
2021/07/01 04:46:36;;;;;;;44.80;42.00;;;;;;;;;;5003858;28;20821;-63
2021/07/01 04:49:04;;;;;;;43.27;40.77;;;;;;;;;;4999125;28;20447;-63
2021/07/01 04:51:32;;;;;;;46.30;43.80;;;;;;;;;;4992396;28;20484;-64
2021/07/01 04:53:59;;;;;;;48.77;46.10;;;;;;;;;;4992137;28;20547;-63
2021/07/01 04:56:42;;;;;;;45.20;42.60;;;;;;;;;;4992041;28;20508;-63
2021/07/01 04:59:10;;;;;;;47.43;44.53;;;;;;;;;;4973238;28;20464;-63
2021/07/01 05:01:37;;;;;;;47.37;44.67;;;;;;;;;;4987334;28;20500;-63
2021/07/01 05:04:07;;;;;;;45.20;42.60;;;;;;;;;;4991821;28;20533;-62
2021/07/01 05:06:34;;;;;;;46.07;43.30;;;;;;;;;;4992428;28;20472;-62
2021/07/01 05:09:01;;;;;;;46.13;43.17;;;;;;;;;;4991550;28;20452;-63
2021/07/01 05:11:29;;;;;;;45.20;42.60;;;;;;;;;;4991723;28;20464;-64
2021/07/01 05:13:56;;;;;;;43.67;41.00;;;;;;;;;;4991325;28;20517;-64
2021/07/01 05:16:24;;;;;;;42.10;39.70;;;;;;;;;;4992850;28;20779;-63
2021/07/01 05:18:51;;;;;;;39.37;37.07;;;;;;;;;;4994420;28;20461;-64
2021/07/01 05:21:19;;;;;;;38.57;36.27;;;;;;;;;;4995035;28;20822;-62
2021/07/01 05:23:46;;;;;;;42.50;40.00;;;;;;;;;;4982600;28;20918;-63
2021/07/01 05:26:14;;;;;;;40.13;37.67;;;;;;;;;;4975839;28;20482;-63
2021/07/01 05:28:41;;;;;;;53.83;50.97;;;;;;;;;;4975503;28;20455;-64
2021/07/01 05:31:08;;;;;;;39.07;36.87;;;;;;;;;;4975636;28;20542;-62
2021/07/01 05:33:35;;;;;;;37.90;35.47;;;;;;;;;;4985049;28;20965;-64
2021/07/01 05:36:02;;;;;;;38.50;36.07;;;;;;;;;;4995181;28;20492;-63
2021/07/01 05:38:30;;;;;;;38.67;36.17;;;;;;;;;;4992873;28;20957;-63
2021/07/01 05:40:58;;;;;;;38.33;35.93;;;;;;;;;;4991350;28;20949;-63
2021/07/01 05:43:25;;;;;;;40.50;37.90;;;;;;;;;;4982184;28;20519;-63
2021/07/01 05:45:52;;;;;;;42.47;39.87;;;;;;;;;;4994958;28;20481;-62
2021/07/01 05:48:19;;;;;;;40.57;38.17;;;;;;;;;;4993994;28;20982;-64
2021/07/01 05:50:50;;;;;;;42.30;40.00;;;;;;;;;;4993464;28;20461;-62
2021/07/01 05:53:24;;;;;;;40.10;37.60;;;;;;;;;;4994917;28;20438;-63
2021/07/01 05:55:53;;;;;;;40.50;38.03;;;;;;;;;;4993957;28;20985;-62
2021/07/01 05:58:20;;;;;;;39.30;37.07;;;;;;;;;;4979623;28;20459;-62
2021/07/01 06:00:47;;;;;;;39.60;37.20;;;;;;;;;;4980215;28;20457;-61
2021/07/01 06:03:14;;;;;;;39.03;37.03;;;;;;;;;;4993819;28;20493;-62
2021/07/01 06:05:44;;;;;;;38.60;36.33;;;;;;;;;;4992546;28;20865;-63
2021/07/01 06:08:12;;;;;;;39.90;37.63;;;;;;;;;;4993328;28;20453;-62
2021/07/01 06:10:40;;;;;;;37.97;35.87;;;;;;;;;;4987055;28;20460;-63
2021/07/01 06:13:09;;;;;;;38.00;35.90;;;;;;;;;;4977708;28;20473;-62
2021/07/01 06:15:37;;;;;;;37.33;35.43;;;;;;;;;;4993771;28;20489;-62
2021/07/01 06:18:04;;;;;;;38.07;36.07;;;;;;;;;;4993869;28;20446;-63
2021/07/01 06:20:31;;;;;;;36.80;34.80;;;;;;;;;;4993709;28;20537;-62
2021/07/01 06:22:58;;;;;;;38.97;36.67;;;;;;;;;;4993717;28;20835;-63
2021/07/01 06:25:26;;;;;;;34.87;32.87;;;;;;;;;;4992919;28;20470;-62
2021/07/01 06:27:53;;;;;;;36.33;34.13;;;;;;;;;;4974841;28;20478;-62
2021/07/01 06:30:22;;;;;;;37.53;35.10;;;;;;;;;;4992649;28;21136;-62
2021/07/01 06:32:51;;;;;;;35.63;33.53;;;;;;;;;;4992997;28;20548;-63
2021/07/01 06:35:20;;;;;;;36.20;34.10;;;;;;;;;;4984756;28;20471;-63
2021/07/01 06:37:47;;;;;;;34.50;32.50;;;;;;;;;;4986009;28;20829;-62
2021/07/01 06:40:15;;;;;;;34.37;32.17;;;;;;;;;;4993943;28;20463;-62
2021/07/01 06:42:45;;;;;;;35.63;33.53;;;;;;;;;;4983930;28;20543;-63
2021/07/01 06:45:13;;;;;;;35.40;33.40;;;;;;;;;;4986356;28;20860;-62
2021/07/01 06:47:46;;;;;;;35.97;33.80;;;;;;;;;;4992970;28;20459;-63
2021/07/01 06:50:15;;;;;;;33.73;31.73;;;;;;;;;;4993667;28;20461;-64
2021/07/01 06:52:43;;;;;;;35.00;33.00;;;;;;;;;;4985328;28;20460;-63
2021/07/01 06:55:12;;;;;;;34.50;32.40;;;;;;;;;;4989380;28;20541;-63
2021/07/01 06:57:40;;;;;;;39.63;37.23;;;;;;;;;;4989106;28;20559;-63
2021/07/01 07:00:08;;;;;;;39.50;37.13;;;;;;;;;;4993289;28;20450;-63
2021/07/01 07:02:35;;;;;;;37.70;35.60;;;;;;;;;;4992262;28;20974;-64
2021/07/01 07:05:04;;;;;;;34.90;33.00;;;;;;;;;;4980257;28;20509;-63
2021/07/01 07:07:32;;;;;;;38.07;35.93;;;;;;;;;;4988294;28;20462;-63
2021/07/01 07:10:03;;;;;;;39.73;37.13;;;;;;;;;;4993648;28;20959;-63
2021/07/01 07:12:30;;;;;;;35.07;32.97;;;;;;;;;;4991418;28;20462;-63
2021/07/01 07:14:58;;;;;;;37.00;34.90;;;;;;;;;;4993201;28;20474;-65
2021/07/01 07:17:25;;;;;;;39.63;37.43;;;;;;;;;;4991878;28;20962;-63
2021/07/01 07:19:53;;;;;;;37.20;34.63;;;;;;;;;;4992902;28;20485;-63
2021/07/01 07:22:22;;;;;;;37.57;35.17;;;;;;;;;;4992387;28;20446;-61
2021/07/01 07:24:52;;;;;;;39.70;37.10;;;;;;;;;;4991279;28;20494;-66
2021/07/01 07:27:21;;;;;;;39.83;37.63;;;;;;;;;;4992750;28;20451;-66
2021/07/01 07:29:48;;;;;;;40.53;38.33;;;;;;;;;;4993002;28;20964;-66
2021/07/01 07:32:16;;;;;;;38.20;36.10;;;;;;;;;;4991986;28;20458;-67
2021/07/01 07:34:44;;;;;;;40.90;38.60;;;;;;;;;;4992571;28;20851;-66
2021/07/01 07:37:11;;;;;;;39.73;37.37;;;;;;;;;;4992882;28;20501;-67
2021/07/01 07:39:39;;;;;;;36.00;34.00;;;;;;;;;;4990556;28;20481;-67
2021/07/01 07:42:07;;;;;;;37.50;35.30;;;;;;;;;;4990749;28;20459;-67
2021/07/01 07:44:37;;;;;;;38.53;36.17;;;;;;;;;;4975461;28;20999;-63
2021/07/01 07:47:04;;;;;;;39.27;37.10;;;;;;;;;;4992708;28;20522;-63
2021/07/01 07:49:31;;;;;;;37.10;35.00;;;;;;;;;;4992196;28;20459;-63
2021/07/01 07:52:03;;;;;;;38.33;36.03;;;;;;;;;;4991398;28;20477;-63
2021/07/01 07:54:33;;;;;;;38.00;35.90;;;;;;;;;;4992059;28;20466;-65
2021/07/01 07:57:02;;;;;;;37.30;35.30;;;;;;;;;;4988462;28;20476;-64
2021/07/01 07:59:30;;;;;;;38.57;36.47;;;;;;;;;;4992266;28;20461;-64
2021/07/01 08:01:58;;;;;;;36.87;34.77;;;;;;;;;;4992047;28;20454;-64
2021/07/01 08:04:27;;;;;;;38.17;36.07;;;;;;;;;;4991608;28;20497;-65
2021/07/01 08:06:55;;;;;;;36.80;34.80;;;;;;;;;;4991961;28;20452;-63
2021/07/01 08:09:23;;;;;;;41.20;38.80;;;;;;;;;;4983896;28;20451;-68
2021/07/01 08:11:52;;;;;;;43.40;40.63;;;;;;;;;;4990585;28;20484;-67
2021/07/01 08:14:22;;;;;;;43.73;41.27;;;;;;;;;;4990917;28;20493;-63
2021/07/01 08:16:49;;;;;;;47.47;44.60;;;;;;;;;;4985075;28;20544;-64
2021/07/01 08:19:17;;;;;;;43.17;40.30;;;;;;;;;;4983129;28;20463;-64
2021/07/01 08:21:46;;;;;;;47.50;44.80;;;;;;;;;;4984220;28;20809;-64
2021/07/01 08:24:13;;;;;;;46.23;43.63;;;;;;;;;;4983948;28;20919;-66
2021/07/01 08:26:40;;;;;;;47.07;44.33;;;;;;;;;;4983055;28;20477;-65
2021/07/01 08:29:08;;;;;;;50.57;47.57;;;;;;;;;;4989881;28;20465;-65
2021/07/01 08:31:36;;;;;;;51.30;48.30;;;;;;;;;;5004245;23;20502;-67
2021/07/01 08:34:06;;;;;;;51.57;47.87;;;;;;;;;;4985376;28;20961;-68
2021/07/01 08:36:35;;;;;;;60.93;57.07;;;;;;;;;;4982325;28;20836;-68
2021/07/01 08:39:02;;;;;;;67.47;62.97;;;;;;;;;;4977115;28;20463;-68
2021/07/01 08:41:31;;;;;;;65.30;61.27;;;;;;;;;;4986430;28;20494;-68
2021/07/01 08:43:58;;;;;;;64.30;60.70;;;;;;;;;;4975227;28;20474;-68
2021/07/01 08:46:27;;;;;;;70.97;66.47;;;;;;;;;;4987854;28;20549;-68
2021/07/01 08:49:03;;;;;;;77.67;73.17;;;;;;;;;;4988856;28;20572;-68
2021/07/01 08:51:32;;;;;;;92.10;87.50;;;;;;;;;;4992832;28;20491;-68
2021/07/01 08:54:23;;;;;;;83.10;78.70;;;;;;;;;;4990557;28;20489;-68
2021/07/01 08:56:51;;;;;;;84.23;79.73;;;;;;;;;;4988221;28;20822;-67
2021/07/01 08:59:19;;;;;;;72.93;68.90;;;;;;;;;;4996613;28;20472;-65
2021/07/01 09:01:49;;;;;;;63.73;60.30;;;;;;;;;;4994323;28;20853;-66
2021/07/01 09:04:21;;;;;;;64.10;60.30;;;;;;;;;;4988601;28;20484;-66
2021/07/01 09:06:50;;;;;;;58.13;54.93;;;;;;;;;;4991475;28;20486;-66
2021/07/01 09:09:18;;;;;;;55.97;52.83;;;;;;;;;;4995876;28;20450;-65
2021/07/01 09:11:46;;;;;;;49.00;46.03;;;;;;;;;;4994284;28;20494;-66
2021/07/01 09:14:14;;;;;;;48.57;45.57;;;;;;;;;;4996292;28;20477;-63
2021/07/01 09:16:41;;;;;;;51.73;47.90;;;;;;;;;;4995552;28;20513;-66
2021/07/01 09:19:09;;;;;;;55.00;51.40;;;;;;;;;;4991838;28;20972;-65
2021/07/01 09:21:37;;;;;;;53.87;50.77;;;;;;;;;;4995372;28;20992;-67
2021/07/01 09:24:05;;;;;;;48.90;45.90;;;;;;;;;;4987434;28;20483;-67
2021/07/01 09:26:32;;;;;;;51.00;47.90;;;;;;;;;;4993646;28;20470;-67
2021/07/01 09:29:00;;;;;;;51.30;48.40;;;;;;;;;;4994765;28;20465;-67
2021/07/01 09:31:28;;;;;;;51.20;48.30;;;;;;;;;;4978704;28;20489;-67
2021/07/01 09:33:55;;;;;;;52.43;49.43;;;;;;;;;;4999186;28;20479;-67
2021/07/01 09:36:26;;;;;;;50.53;47.73;;;;;;;;;;4995700;28;20461;-67
2021/07/01 09:38:57;;;;;;;50.10;47.20;;;;;;;;;;4993819;28;20474;-67
2021/07/01 09:41:24;;;;;;;53.80;50.90;;;;;;;;;;4990486;28;20491;-67
2021/07/01 09:43:51;;;;;;;53.50;50.50;;;;;;;;;;4994683;28;20461;-67
2021/07/01 09:46:20;;;;;;;56.40;53.30;;;;;;;;;;4995187;28;20574;-67
2021/07/01 09:48:49;;;;;;;56.33;53.33;;;;;;;;;;4994979;28;20549;-66
2021/07/01 09:51:17;;;;;;;54.97;51.90;;;;;;;;;;4988964;28;20484;-67
2021/07/01 09:53:48;;;;;;;46.03;43.53;;;;;;;;;;4988301;28;20975;-67
2021/07/01 09:56:20;;;;;;;42.80;40.40;;;;;;;;;;4991970;28;20455;-67
2021/07/01 09:58:49;;;;;;;50.87;48.27;;;;;;;;;;4991819;28;20491;-66
2021/07/01 10:01:23;;;;;;;48.73;46.03;;;;;;;;;;4994761;28;20491;-66
2021/07/01 10:03:54;;;;;;;48.40;45.70;;;;;;;;;;4994786;28;20817;-66
2021/07/01 10:06:21;;;;;;;44.60;42.07;;;;;;;;;;4991812;28;20494;-66
2021/07/01 10:08:49;;;;;;;48.63;46.03;;;;;;;;;;4995506;28;20461;-65
2021/07/01 10:11:30;;;;;;;46.57;43.97;;;;;;;;;;4994488;28;20463;-66
2021/07/01 10:13:58;;;;;;;49.13;46.17;;;;;;;;;;4976278;28;20939;-64
2021/07/01 10:16:29;;;;;;;47.93;45.13;;;;;;;;;;4988994;28;20497;-67
2021/07/01 10:18:57;;;;;;;46.40;43.70;;;;;;;;;;4994981;28;20541;-67
2021/07/01 10:21:26;;;;;;;47.83;45.03;;;;;;;;;;4994298;28;20853;-67
2021/07/01 10:24:07;;;;;;;49.53;46.73;;;;;;;;;;4993950;28;20945;-67
2021/07/01 10:26:40;;;;;;;52.40;49.37;;;;;;;;;;4993729;28;20474;-69
2021/07/01 10:29:07;;;;;;;53.17;50.10;;;;;;;;;;4992578;28;20493;-68
2021/07/01 10:31:48;;;;;;;55.63;52.73;;;;;;;;;;4993725;28;20516;-67
2021/07/01 10:34:15;;;;;;;50.60;47.60;;;;;;;;;;4995036;28;20968;-67
2021/07/01 10:36:42;;;;;;;51.87;48.77;;;;;;;;;;4994617;28;20802;-67
2021/07/01 10:39:10;;;;;;;52.30;49.20;;;;;;;;;;4995063;28;20457;-65
2021/07/01 10:41:39;;;;;;;54.63;51.23;;;;;;;;;;4994406;28;20493;-67
2021/07/01 10:44:07;;;;;;;54.53;51.43;;;;;;;;;;4994500;28;20450;-70
2021/07/01 10:46:38;;;;;;;58.27;54.77;;;;;;;;;;4994463;28;20486;-69
2021/07/01 10:49:05;;;;;;;61.13;57.43;;;;;;;;;;4993714;28;20468;-69
2021/07/01 10:51:33;;;;;;;58.17;54.90;;;;;;;;;;4994327;28;20477;-69
2021/07/01 10:54:10;;;;;;;58.20;54.90;;;;;;;;;;4990287;28;20478;-67
2021/07/01 10:56:41;;;;;;;62.47;59.00;;;;;;;;;;4994627;28;20466;-66
2021/07/01 10:59:10;;;;;;;64.57;60.97;;;;;;;;;;4994345;28;20856;-68
2021/07/01 11:01:38;;;;;;;68.77;64.97;;;;;;;;;;4986874;28;20581;-67
2021/07/01 11:04:07;;;;;;;68.30;64.50;;;;;;;;;;4989683;28;20470;-67
2021/07/01 11:06:35;;;;;;;76.13;71.03;;;;;;;;;;4990690;28;20490;-67
2021/07/01 11:09:03;;;;;;;72.53;67.63;;;;;;;;;;4988456;28;20554;-69
2021/07/01 11:11:33;;;;;;;71.63;67.43;;;;;;;;;;4986273;28;20490;-67
2021/07/01 11:14:01;;;;;;;69.77;65.93;;;;;;;;;;4974556;28;20456;-67
2021/07/01 11:16:35;;;;;;;65.13;61.53;;;;;;;;;;4976203;28;20469;-67
2021/07/01 11:19:02;;;;;;;61.27;57.87;;;;;;;;;;4980602;28;20471;-67
2021/07/01 11:21:29;;;;;;;60.73;57.43;;;;;;;;;;4994233;28;20477;-67
2021/07/01 11:24:11;;;;;;;60.80;57.40;;;;;;;;;;4992594;28;20518;-67
2021/07/01 11:26:38;;;;;;;61.20;57.70;;;;;;;;;;4979902;28;20481;-67
2021/07/01 11:29:08;;;;;;;66.60;63.00;;;;;;;;;;4992167;28;20467;-69
2021/07/01 11:31:40;;;;;;;80.97;75.00;;;;;;;;;;4992283;28;20569;-68
2021/07/01 11:34:08;;;;;;;69.93;65.40;;;;;;;;;;4991256;28;20472;-68
2021/07/01 11:36:35;;;;;;;73.20;68.47;;;;;;;;;;4993569;28;20549;-67
2021/07/01 11:39:13;;;;;;;72.23;67.90;;;;;;;;;;4983753;28;20468;-67
2021/07/01 11:41:41;;;;;;;72.50;68.10;;;;;;;;;;4993098;28;20848;-67
2021/07/01 11:44:10;;;;;;;66.50;62.50;;;;;;;;;;4992279;28;20470;-67
2021/07/01 11:46:38;;;;;;;61.07;57.67;;;;;;;;;;4993081;28;20834;-68
2021/07/01 11:49:07;;;;;;;64.23;60.53;;;;;;;;;;4988457;28;20477;-68
2021/07/01 11:51:34;;;;;;;59.87;56.33;;;;;;;;;;4973082;28;20908;-67
2021/07/01 11:54:01;;;;;;;56.10;52.73;;;;;;;;;;4989363;28;20489;-67
2021/07/01 11:56:29;;;;;;;55.93;52.60;;;;;;;;;;4993192;28;20454;-67
2021/07/01 11:58:56;;;;;;;49.57;46.67;;;;;;;;;;4991527;28;20462;-67
2021/07/01 12:01:24;;;;;;;53.50;50.20;;;;;;;;;;4989151;28;20486;-69
2021/07/01 12:03:52;;;;;;;53.23;50.13;;;;;;;;;;4991102;28;20476;-68
2021/07/01 12:06:35;;;;;;;54.13;51.03;;;;;;;;;;4991988;28;20845;-68
2021/07/01 12:09:02;;;;;;;54.87;51.67;;;;;;;;;;4991775;28;20458;-69
2021/07/01 12:11:30;;;;;;;48.03;45.20;;;;;;;;;;4990374;28;20598;-68
2021/07/01 12:13:57;;;;;;;51.00;48.10;;;;;;;;;;4992804;28;20458;-66
2021/07/01 12:16:24;;;;;;;51.57;48.57;;;;;;;;;;4990367;28;20446;-66
2021/07/01 12:18:58;;;;;;;47.87;44.67;;;;;;;;;;4984652;28;20455;-66
2021/07/01 12:21:28;;;;;;;46.90;44.13;;;;;;;;;;4990718;28;20487;-65
2021/07/01 12:23:57;;;;;;;49.17;46.27;;;;;;;;;;4985766;28;20452;-66
2021/07/01 12:26:37;;;;;;;47.40;44.50;;;;;;;;;;4994096;28;20493;-65
2021/07/01 12:29:06;;;;;;;48.33;45.43;;;;;;;;;;4996126;28;20454;-66
2021/07/01 12:31:34;;;;;;;50.87;47.97;;;;;;;;;;4996335;28;20486;-65
2021/07/01 12:34:03;;;;;;;47.40;44.60;;;;;;;;;;4997391;28;20889;-66
2021/07/01 12:36:32;;;;;;;49.10;46.40;;;;;;;;;;4996971;28;20535;-66
2021/07/01 12:39:18;;;;;;;52.27;49.33;;;;;;;;;;4996976;28;20454;-66
2021/07/01 12:41:46;;;;;;;50.60;47.80;;;;;;;;;;4996207;28;20485;-66
2021/07/01 12:44:16;;;;;;;50.73;47.90;;;;;;;;;;4996954;28;20450;-66
2021/07/01 12:46:59;;;;;;;48.97;46.27;;;;;;;;;;4996749;28;20478;-66
2021/07/01 12:49:50;;;;;;;47.93;45.33;;;;;;;;;;4977295;28;20454;-66
2021/07/01 12:52:20;;;;;;;51.30;48.50;;;;;;;;;;4992681;28;20490;-65
2021/07/01 12:54:54;;;;;;;56.77;53.57;;;;;;;;;;4996251;28;20982;-66
2021/07/01 12:57:21;;;;;;;59.37;56.03;;;;;;;;;;4995298;28;20541;-67
2021/07/01 12:59:49;;;;;;;60.40;57.10;;;;;;;;;;4996353;28;20455;-65
2021/07/01 13:02:17;;;;;;;55.60;52.50;;;;;;;;;;4996037;28;20548;-65
2021/07/01 13:04:45;;;;;;;62.77;59.47;;;;;;;;;;4996111;28;20465;-66
2021/07/01 13:07:13;;;;;;;59.70;56.60;;;;;;;;;;4995794;28;20486;-66
2021/07/01 13:09:43;;;;;;;58.43;55.33;;;;;;;;;;4996347;28;20461;-65
2021/07/01 13:12:11;;;;;;;55.57;52.47;;;;;;;;;;4995873;28;20852;-65
2021/07/01 13:14:39;;;;;;;54.30;51.20;;;;;;;;;;4995899;28;20452;-66
2021/07/01 13:17:07;;;;;;;53.00;50.00;;;;;;;;;;4993896;28;20457;-66
2021/07/01 13:19:34;;;;;;;55.17;52.27;;;;;;;;;;4975920;28;20825;-66
2021/07/01 13:22:03;;;;;;;51.90;49.10;;;;;;;;;;4987373;28;20474;-66
2021/07/01 13:24:31;;;;;;;52.93;49.93;;;;;;;;;;4975899;28;20447;-65
2021/07/01 13:26:59;;;;;;;51.87;48.87;;;;;;;;;;4993222;28;20483;-66
2021/07/01 13:29:36;;;;;;;44.73;42.23;;;;;;;;;;4995330;28;20458;-66
2021/07/01 13:32:03;;;;;;;49.57;46.90;;;;;;;;;;4995932;28;20477;-66
2021/07/01 13:34:30;;;;;;;48.33;45.73;;;;;;;;;;4995971;28;20450;-66
2021/07/01 13:36:57;;;;;;;53.80;50.57;;;;;;;;;;4993666;28;20442;-66
2021/07/01 13:39:31;;;;;;;52.00;49.10;;;;;;;;;;4995209;28;20834;-66
2021/07/01 13:42:22;;;;;;;52.87;49.87;;;;;;;;;;4995762;28;20478;-65
2021/07/01 13:44:58;;;;;;;56.80;53.60;;;;;;;;;;4988979;28;20553;-68
2021/07/01 13:47:25;;;;;;;56.97;53.83;;;;;;;;;;4996569;28;20489;-68
2021/07/01 13:49:52;;;;;;;61.03;57.83;;;;;;;;;;5003894;28;20454;-68
2021/07/01 13:52:19;;;;;;;59.50;56.30;;;;;;;;;;4994795;28;20501;-66
2021/07/01 13:54:47;;;;;;;58.37;55.17;;;;;;;;;;4979424;28;20548;-68
2021/07/01 13:57:25;;;;;;;59.07;55.97;;;;;;;;;;4984573;28;20456;-67
2021/07/01 13:59:54;;;;;;;60.70;57.30;;;;;;;;;;4984799;28;20455;-67
2021/07/01 14:02:22;;;;;;;60.90;57.60;;;;;;;;;;4977772;28;20458;-67
2021/07/01 14:04:49;;;;;;;61.00;57.60;;;;;;;;;;4995353;28;20457;-67
2021/07/01 14:07:26;;;;;;;71.03;67.33;;;;;;;;;;4995152;28;20482;-67
2021/07/01 14:09:53;;;;;;;76.93;73.03;;;;;;;;;;4995575;28;20460;-69
2021/07/01 14:12:21;;;;;;;74.30;70.30;;;;;;;;;;4995226;28;20461;-67
2021/07/01 14:14:48;;;;;;;68.53;64.73;;;;;;;;;;4975805;28;20451;-67
2021/07/01 14:17:16;;;;;;;78.97;74.87;;;;;;;;;;4975633;28;20443;-67
2021/07/01 14:19:43;;;;;;;76.87;72.90;;;;;;;;;;4987992;28;21029;-68
2021/07/01 14:22:10;;;;;;;80.53;76.33;;;;;;;;;;4991228;28;20957;-67
2021/07/01 14:24:39;;;;;;;79.60;75.60;;;;;;;;;;4995658;28;20458;-67